Statia Reliant — V7UC9 — position and weather

sailwx.info

Track history (hours):
 
Tides and Currents Weather Stations Pressure Air Temp Water Temp Dewpoint Dewpoint Depression Visibility Wind Speed Wind Dir Waves Ship Positions

Statia Reliant

Last reported at 2018-Jan-20 00:51 UTC. Time now 2018-Jan-20 01:21 UTC.
Position N 17°29' W 063°00'.

Length 27 m; draft 4 m.

Type: Tug. MMSI: 538003903.

Date/timePositionNaut miles runAvg speedWind from/ knotsBaromVisibWave heightAir tempDewpointWater temp
2018-Jan-20 00:51N 17°29' W 063°00'0 0.1
2018-Jan-20 00:13N 17°29' W 063°00'0 0.0
2018-Jan-19 23:56N 17°29' W 063°00'0 0.0
2018-Jan-19 23:20N 17°29' W 063°00'1 2.5
2018-Jan-19 22:56N 17°30' W 063°00'0 0.0
2018-Jan-19 22:29N 17°30' W 063°00'0 0.0
2018-Jan-19 21:56N 17°30' W 063°00'0 0.0
2018-Jan-19 21:18N 17°30' W 063°00'1 3.1
2018-Jan-19 20:59N 17°29' W 063°00'0 0.3
2018-Jan-19 19:41N 17°29' W 062°60'0 0.1
2018-Jan-19 19:27N 17°29' W 062°60'1 2.9
2018-Jan-19 18:58N 17°30' W 063°00'1 2.3
2018-Jan-19 18:26N 17°29' W 063°00'0 0.1
2018-Jan-19 17:56N 17°29' W 063°00'0 0.1
2018-Jan-19 17:29N 17°29' W 063°00'0 0.1
2018-Jan-19 16:59N 17°29' W 063°00'0 0.1
2018-Jan-19 16:29N 17°29' W 063°00'0 0.0
2018-Jan-19 16:00N 17°29' W 063°00'0 0.0
2018-Jan-19 15:27N 17°29' W 063°00'0 0.4
2018-Jan-19 14:59N 17°29' W 062°60'0 0.1
2018-Jan-19 14:29N 17°29' W 062°60'0 0.0
2018-Jan-19 14:00N 17°29' W 062°60'0 0.0
2018-Jan-19 13:26N 17°29' W 062°60'0 0.0
2018-Jan-19 12:58N 17°29' W 062°60'0 0.0
2018-Jan-19 11:49N 17°29' W 062°60'0 0.0
2018-Jan-19 11:15N 17°29' W 062°60'0 0.0
2018-Jan-19 10:56N 17°29' W 062°60'0 0.0
2018-Jan-19 10:17N 17°29' W 062°60'0 0.1
2018-Jan-19 10:00N 17°29' W 062°60'0 0.0
2018-Jan-19 09:19N 17°29' W 062°60'0 0.0
2018-Jan-19 08:55N 17°29' W 062°60'0 0.0
2018-Jan-19 08:27N 17°29' W 062°60'0 0.0
2018-Jan-19 07:54N 17°29' W 062°60'0 0.0
2018-Jan-19 07:26N 17°29' W 062°60'1 1.3
2018-Jan-19 07:00N 17°29' W 063°00'1 0.5
2018-Jan-19 05:20N 17°30' W 063°01'0 0.2
2018-Jan-19 04:57N 17°30' W 063°01'1 2.8
2018-Jan-19 04:25N 17°29' W 062°60'0 0.0
2018-Jan-19 04:00N 17°29' W 062°60'0 0.0
2018-Jan-19 03:20N 17°29' W 062°60'0 0.0
2018-Jan-19 02:49N 17°29' W 062°60'0 0.1
2018-Jan-19 02:30N 17°29' W 062°60'0 0.0
2018-Jan-19 01:55N 17°29' W 062°60'0 0.0
2018-Jan-19 01:27N 17°29' W 062°60'0 0.0
2018-Jan-19 01:00N 17°29' W 062°60'0 0.0
2018-Jan-19 00:27N 17°29' W 062°60'0 0.0
2018-Jan-19 00:00N 17°29' W 062°60'0 0.0
2018-Jan-18 23:30N 17°29' W 062°60'0 0.0
2018-Jan-18 23:00N 17°29' W 062°60'0 0.0
2018-Jan-18 22:22N 17°29' W 062°60'0 0.4
2018-Jan-18 21:56N 17°29' W 063°00'0 0.7
2018-Jan-18 21:23N 17°29' W 062°60'0 0.6
2018-Jan-18 21:00N 17°29' W 062°60'1 1.3
2018-Jan-18 20:27N 17°29' W 062°59'0 0.0
2018-Jan-18 19:57N 17°29' W 062°59'0 0.0
2018-Jan-18 19:26N 17°29' W 062°59'0 0.3
2018-Jan-18 18:35N 17°29' W 062°60'0 1.7
2018-Jan-18 18:19N 17°29' W 062°60'0 0.0
2018-Jan-18 17:58N 17°29' W 062°60'0 0.3
2018-Jan-18 17:27N 17°29' W 063°00'0 0.2
2018-Jan-18 16:59N 17°29' W 063°00'1 1.8
2018-Jan-18 16:28N 17°30' W 063°00'0 0.0
2018-Jan-18 15:57N 17°30' W 063°00'0 0.0
2018-Jan-18 15:28N 17°30' W 063°00'0 0.1
2018-Jan-18 14:25N 17°30' W 063°00'1 1.6
2018-Jan-18 13:53N 17°29' W 063°01'1 0.2
2018-Jan-18 11:30N 17°29' W 063°01'0 0.7
2018-Jan-18 11:00N 17°29' W 063°00'1 1.1
2018-Jan-18 10:26N 17°29' W 062°60'0 0.0
2018-Jan-18 09:57N 17°29' W 062°60'1 2.2
2018-Jan-18 09:22N 17°29' W 063°01'0 0.9
2018-Jan-18 08:57N 17°29' W 063°01'1 1.0
2018-Jan-18 08:27N 17°30' W 063°00'1 1.3
2018-Jan-18 07:58N 17°29' W 062°60'0 0.6
2018-Jan-18 07:27N 17°29' W 062°60'0 0.0
2018-Jan-18 07:00N 17°29' W 062°60'0 0.0
2018-Jan-18 06:13N 17°29' W 062°60'0 0.1
2018-Jan-18 05:59N 17°29' W 062°60'0 0.0
2018-Jan-18 05:30N 17°29' W 062°60'0 0.0
2018-Jan-18 04:57N 17°29' W 062°60'0 0.0
2018-Jan-18 04:16N 17°29' W 062°60'0 0.0
2018-Jan-18 03:59N 17°29' W 062°60'0 0.0
2018-Jan-18 03:28N 17°29' W 062°60'0 0.1
2018-Jan-18 02:59N 17°29' W 062°60'0 0.0
2018-Jan-18 02:24N 17°29' W 062°60'0 0.0
2018-Jan-18 01:56N 17°29' W 062°60'0 0.0
2018-Jan-18 01:25N 17°29' W 062°60'0 0.0
2018-Jan-18 00:59N 17°29' W 062°60'  
2018-Jan-12 12:17N 17°17' W 062°46'1 4.6
2018-Jan-12 11:59N 17°17' W 062°47'9 4.8
2018-Jan-12 10:08N 17°22' W 062°55'2 4.5
2018-Jan-12 09:45N 17°23' W 062°56'3 4.2
2018-Jan-12 08:55N 17°26' W 062°59'9 4.4
2018-Jan-12 06:53N 17°34' W 063°03'3 4.3
2018-Jan-12 06:14N 17°36' W 063°03'2 4.4
2018-Jan-12 05:49N 17°38' W 063°03'2 4.4
2018-Jan-12 05:20N 17°40' W 063°03'2 4.4
2018-Jan-12 04:58N 17°42' W 063°03'2 4.4
2018-Jan-12 04:29N 17°44' W 063°04'2 4.2
2018-Jan-12 03:59N 17°46' W 063°04'2 4.3
2018-Jan-12 03:28N 17°48' W 063°04'3 4.1
2018-Jan-12 02:46N 17°51' W 063°04'2 4.3
2018-Jan-12 02:20N 17°53' W 063°04'1 4.0
2018-Jan-12 02:00N 17°54' W 063°05'2 4.2
2018-Jan-12 01:30N 17°56' W 063°05'2 4.2
2018-Jan-12 01:00N 17°58' W 063°05'1 2.7
2018-Jan-12 00:30N 17°60' W 063°05'2 3.7
2018-Jan-11 23:59N 18°00' W 063°03'1 1.1
2018-Jan-11 23:27N 18°01' W 063°03'0 0.0
2018-Jan-11 22:59N 18°01' W 063°03'0 0.0
2018-Jan-11 22:28N 18°01' W 063°03'0 0.0
2018-Jan-11 21:57N 18°01' W 063°03'0 0.0
2018-Jan-11 21:28N 18°01' W 063°03'0 0.2
2018-Jan-11 21:00N 18°00' W 063°03'0 0.0
2018-Jan-11 20:26N 18°00' W 063°03'0 0.0
2018-Jan-11 20:00N 18°00' W 063°03'0 0.0
2018-Jan-11 19:25N 18°00' W 063°03'0 0.0
2018-Jan-11 18:54N 18°00' W 063°03'0 0.0
2018-Jan-11 18:30N 18°00' W 063°03'0 0.0
2018-Jan-11 18:00N 18°00' W 063°03'0 0.0
2018-Jan-11 17:29N 18°00' W 063°03'0 0.0
2018-Jan-11 17:00N 18°00' W 063°03'0 0.1
2018-Jan-11 16:24N 18°01' W 063°03'0 0.1
2018-Jan-11 15:58N 18°00' W 063°03'1 1.2
2018-Jan-11 15:30N 18°00' W 063°03'1 1.8
2018-Jan-11 14:59N 18°00' W 063°04'1 2.1
2018-Jan-11 14:26N 17°60' W 063°05'1 2.6
2018-Jan-11 13:58N 17°59' W 063°06'1 1.5
2018-Jan-11 13:14N 17°57' W 063°06'0 1.6
2018-Jan-11 12:58N 17°57' W 063°06'2 3.3
2018-Jan-11 12:30N 17°56' W 063°06'2 4.4
2018-Jan-11 12:00N 17°54' W 063°05'4 4.9
2018-Jan-11 11:06N 17°49' W 063°04'1 4.4
2018-Jan-11 10:57N 17°49' W 063°04'2 4.4
2018-Jan-11 10:30N 17°47' W 063°04'2 4.2
2018-Jan-11 09:59N 17°45' W 063°03'2 4.0
2018-Jan-11 09:27N 17°43' W 063°04'2 4.9
2018-Jan-11 08:58N 17°41' W 063°03'5 4.5
2018-Jan-11 07:57N 17°36' W 063°02'4 4.4
2018-Jan-11 06:58N 17°32' W 063°02'2 4.1
2018-Jan-11 06:26N 17°30' W 063°01'1 0.8
2018-Jan-11 04:53N 17°29' W 063°00'0 0.0
2018-Jan-11 04:23N 17°29' W 063°00'0 0.0
2018-Jan-11 03:57N 17°29' W 063°00'0 0.5
2018-Jan-11 03:20N 17°29' W 063°00'0 0.1
2018-Jan-11 02:53N 17°29' W 063°00'0 0.0
2018-Jan-11 00:41N 17°29' W 063°00'0 1.5
2018-Jan-11 00:30N 17°29' W 063°00'0 0.5
2018-Jan-10 23:45N 17°29' W 063°01'0 0.3
2018-Jan-10 23:25N 17°29' W 063°01'6 3.4
2018-Jan-10 21:30N 17°35' W 063°02'2 3.9
2018-Jan-10 20:52N 17°38' W 063°03'2 4.0
2018-Jan-10 20:18N 17°40' W 063°03'1 4.1
2018-Jan-10 20:00N 17°41' W 063°03'2 4.0
2018-Jan-10 19:26N 17°43' W 063°03'2 4.0
2018-Jan-10 18:59N 17°45' W 063°03'2 4.1
2018-Jan-10 18:30N 17°47' W 063°04'3 4.0
2018-Jan-10 17:50N 17°50' W 063°04'1 4.2
2018-Jan-10 17:29N 17°51' W 063°04'2 4.3
2018-Jan-10 16:59N 17°53' W 063°05'2 4.3
2018-Jan-10 16:26N 17°56' W 063°05'2 4.4
2018-Jan-10 16:00N 17°58' W 063°05'2 4.3
2018-Jan-10 15:29N 17°60' W 063°06'1 2.9
2018-Jan-10 14:59N 18°00' W 063°05'1 2.8
2018-Jan-10 14:29N 18°01' W 063°03'0 0.4
2018-Jan-10 13:57N 18°01' W 063°03'0 0.5
2018-Jan-10 13:29N 18°01' W 063°03'0 0.0
2018-Jan-10 12:55N 18°01' W 063°03'0 0.0
2018-Jan-10 12:28N 18°01' W 063°03'0 0.0
2018-Jan-10 11:58N 18°01' W 063°03'0 0.0
2018-Jan-10 11:29N 18°01' W 063°03'0 0.0
2018-Jan-10 10:55N 18°01' W 063°03'0 0.0
2018-Jan-10 10:22N 18°01' W 063°03'0 0.0
2018-Jan-10 09:59N 18°01' W 063°03'0 0.0
2018-Jan-10 09:30N 18°01' W 063°03'0 0.0
2018-Jan-10 08:56N 18°01' W 063°03'0 0.0
2018-Jan-10 08:25N 18°01' W 063°03'0 0.0
2018-Jan-10 07:46N 18°01' W 063°03'0 0.1
2018-Jan-10 07:27N 18°01' W 063°03'0 0.0
2018-Jan-10 06:58N 18°01' W 063°03'0 0.0
2018-Jan-10 06:27N 18°01' W 063°03'0 0.0
2018-Jan-10 05:58N 18°01' W 063°03'0 0.0
2018-Jan-10 05:26N 18°01' W 063°03'0 0.0
2018-Jan-10 04:59N 18°01' W 063°03'0 0.1
2018-Jan-10 04:30N 18°01' W 063°03'0 0.0
2018-Jan-10 03:45N 18°01' W 063°03'0 0.0
2018-Jan-10 03:28N 18°01' W 063°03'0 0.0
2018-Jan-10 02:52N 18°01' W 063°03'0 0.0
2018-Jan-10 02:28N 18°01' W 063°03'0 0.0
2018-Jan-10 01:47N 18°01' W 063°03'0 0.9
2018-Jan-10 01:27N 18°01' W 063°03'0 0.7
2018-Jan-10 01:00N 18°01' W 063°03'  
Track history (hours):
 
Tides and Currents Weather Stations Pressure Air Temp Water Temp Dewpoint Dewpoint Depression Visibility Wind Speed Wind Dir Waves Ship Positions

Statia Reliant

Last reported at 2018-Jan-20 00:51 UTC. Time now 2018-Jan-20 01:21 UTC.
Position N 17°29' W 063°00'.

Length 27 m; draft 4 m.

Type: Tug. MMSI: 538003903.

Date/timePositionNaut miles runAvg speedWind from/ knotsBaromVisibWave heightAir tempDewpointWater temp
2018-Jan-20 00:51N 17°29' W 063°00'0 0.1
2018-Jan-20 00:13N 17°29' W 063°00'0 0.0
2018-Jan-19 23:56N 17°29' W 063°00'0 0.0
2018-Jan-19 23:20N 17°29' W 063°00'1 2.5
2018-Jan-19 22:56N 17°30' W 063°00'0 0.0
2018-Jan-19 22:29N 17°30' W 063°00'0 0.0
2018-Jan-19 21:56N 17°30' W 063°00'0 0.0
2018-Jan-19 21:18N 17°30' W 063°00'1 3.1
2018-Jan-19 20:59N 17°29' W 063°00'0 0.3
2018-Jan-19 19:41N 17°29' W 062°60'0 0.1
2018-Jan-19 19:27N 17°29' W 062°60'1 2.9
2018-Jan-19 18:58N 17°30' W 063°00'1 2.3
2018-Jan-19 18:26N 17°29' W 063°00'0 0.1
2018-Jan-19 17:56N 17°29' W 063°00'0 0.1
2018-Jan-19 17:29N 17°29' W 063°00'0 0.1
2018-Jan-19 16:59N 17°29' W 063°00'0 0.1
2018-Jan-19 16:29N 17°29' W 063°00'0 0.0
2018-Jan-19 16:00N 17°29' W 063°00'0 0.0
2018-Jan-19 15:27N 17°29' W 063°00'0 0.4
2018-Jan-19 14:59N 17°29' W 062°60'0 0.1
2018-Jan-19 14:29N 17°29' W 062°60'0 0.0
2018-Jan-19 14:00N 17°29' W 062°60'0 0.0
2018-Jan-19 13:26N 17°29' W 062°60'0 0.0
2018-Jan-19 12:58N 17°29' W 062°60'0 0.0
2018-Jan-19 11:49N 17°29' W 062°60'0 0.0
2018-Jan-19 11:15N 17°29' W 062°60'0 0.0
2018-Jan-19 10:56N 17°29' W 062°60'0 0.0
2018-Jan-19 10:17N 17°29' W 062°60'0 0.1
2018-Jan-19 10:00N 17°29' W 062°60'0 0.0
2018-Jan-19 09:19N 17°29' W 062°60'0 0.0
2018-Jan-19 08:55N 17°29' W 062°60'0 0.0
2018-Jan-19 08:27N 17°29' W 062°60'0 0.0
2018-Jan-19 07:54N 17°29' W 062°60'0 0.0
2018-Jan-19 07:26N 17°29' W 062°60'1 1.3
2018-Jan-19 07:00N 17°29' W 063°00'1 0.5
2018-Jan-19 05:20N 17°30' W 063°01'0 0.2
2018-Jan-19 04:57N 17°30' W 063°01'1 2.8
2018-Jan-19 04:25N 17°29' W 062°60'0 0.0
2018-Jan-19 04:00N 17°29' W 062°60'0 0.0
2018-Jan-19 03:20N 17°29' W 062°60'0 0.0
2018-Jan-19 02:49N 17°29' W 062°60'0 0.1
2018-Jan-19 02:30N 17°29' W 062°60'0 0.0
2018-Jan-19 01:55N 17°29' W 062°60'0 0.0
2018-Jan-19 01:27N 17°29' W 062°60'0 0.0
2018-Jan-19 01:00N 17°29' W 062°60'0 0.0
2018-Jan-19 00:27N 17°29' W 062°60'0 0.0
2018-Jan-19 00:00N 17°29' W 062°60'0 0.0
2018-Jan-18 23:30N 17°29' W 062°60'0 0.0
2018-Jan-18 23:00N 17°29' W 062°60'0 0.0
2018-Jan-18 22:22N 17°29' W 062°60'0 0.4
2018-Jan-18 21:56N 17°29' W 063°00'0 0.7
2018-Jan-18 21:23N 17°29' W 062°60'0 0.6
2018-Jan-18 21:00N 17°29' W 062°60'1 1.3
2018-Jan-18 20:27N 17°29' W 062°59'0 0.0
2018-Jan-18 19:57N 17°29' W 062°59'0 0.0
2018-Jan-18 19:26N 17°29' W 062°59'0 0.3
2018-Jan-18 18:35N 17°29' W 062°60'0 1.7
2018-Jan-18 18:19N 17°29' W 062°60'0 0.0
2018-Jan-18 17:58N 17°29' W 062°60'0 0.3
2018-Jan-18 17:27N 17°29' W 063°00'0 0.2
2018-Jan-18 16:59N 17°29' W 063°00'1 1.8
2018-Jan-18 16:28N 17°30' W 063°00'0 0.0
2018-Jan-18 15:57N 17°30' W 063°00'0 0.0
2018-Jan-18 15:28N 17°30' W 063°00'0 0.1
2018-Jan-18 14:25N 17°30' W 063°00'1 1.6
2018-Jan-18 13:53N 17°29' W 063°01'1 0.2
2018-Jan-18 11:30N 17°29' W 063°01'0 0.7
2018-Jan-18 11:00N 17°29' W 063°00'1 1.1
2018-Jan-18 10:26N 17°29' W 062°60'0 0.0
2018-Jan-18 09:57N 17°29' W 062°60'1 2.2
2018-Jan-18 09:22N 17°29' W 063°01'0 0.9
2018-Jan-18 08:57N 17°29' W 063°01'1 1.0
2018-Jan-18 08:27N 17°30' W 063°00'1 1.3
2018-Jan-18 07:58N 17°29' W 062°60'0 0.6
2018-Jan-18 07:27N 17°29' W 062°60'0 0.0
2018-Jan-18 07:00N 17°29' W 062°60'0 0.0
2018-Jan-18 06:13N 17°29' W 062°60'0 0.1
2018-Jan-18 05:59N 17°29' W 062°60'0 0.0
2018-Jan-18 05:30N 17°29' W 062°60'0 0.0
2018-Jan-18 04:57N 17°29' W 062°60'0 0.0
2018-Jan-18 04:16N 17°29' W 062°60'0 0.0
2018-Jan-18 03:59N 17°29' W 062°60'0 0.0
2018-Jan-18 03:28N 17°29' W 062°60'0 0.1
2018-Jan-18 02:59N 17°29' W 062°60'0 0.0
2018-Jan-18 02:24N 17°29' W 062°60'0 0.0
2018-Jan-18 01:56N 17°29' W 062°60'0 0.0
2018-Jan-18 01:25N 17°29' W 062°60'0 0.0
2018-Jan-18 00:59N 17°29' W 062°60'  
2018-Jan-12 12:17N 17°17' W 062°46'1 4.6
2018-Jan-12 11:59N 17°17' W 062°47'9 4.8
2018-Jan-12 10:08N 17°22' W 062°55'2 4.5
2018-Jan-12 09:45N 17°23' W 062°56'3 4.2
2018-Jan-12 08:55N 17°26' W 062°59'9 4.4
2018-Jan-12 06:53N 17°34' W 063°03'3 4.3
2018-Jan-12 06:14N 17°36' W 063°03'2 4.4
2018-Jan-12 05:49N 17°38' W 063°03'2 4.4
2018-Jan-12 05:20N 17°40' W 063°03'2 4.4
2018-Jan-12 04:58N 17°42' W 063°03'2 4.4
2018-Jan-12 04:29N 17°44' W 063°04'2 4.2
2018-Jan-12 03:59N 17°46' W 063°04'2 4.3
2018-Jan-12 03:28N 17°48' W 063°04'3 4.1
2018-Jan-12 02:46N 17°51' W 063°04'2 4.3
2018-Jan-12 02:20N 17°53' W 063°04'1 4.0
2018-Jan-12 02:00N 17°54' W 063°05'2 4.2
2018-Jan-12 01:30N 17°56' W 063°05'2 4.2
2018-Jan-12 01:00N 17°58' W 063°05'1 2.7
2018-Jan-12 00:30N 17°60' W 063°05'2 3.7
2018-Jan-11 23:59N 18°00' W 063°03'1 1.1
2018-Jan-11 23:27N 18°01' W 063°03'0 0.0
2018-Jan-11 22:59N 18°01' W 063°03'0 0.0
2018-Jan-11 22:28N 18°01' W 063°03'0 0.0
2018-Jan-11 21:57N 18°01' W 063°03'0 0.0
2018-Jan-11 21:28N 18°01' W 063°03'0 0.2
2018-Jan-11 21:00N 18°00' W 063°03'0 0.0
2018-Jan-11 20:26N 18°00' W 063°03'0 0.0
2018-Jan-11 20:00N 18°00' W 063°03'0 0.0
2018-Jan-11 19:25N 18°00' W 063°03'0 0.0
2018-Jan-11 18:54N 18°00' W 063°03'0 0.0
2018-Jan-11 18:30N 18°00' W 063°03'0 0.0
2018-Jan-11 18:00N 18°00' W 063°03'0 0.0
2018-Jan-11 17:29N 18°00' W 063°03'0 0.0
2018-Jan-11 17:00N 18°00' W 063°03'0 0.1
2018-Jan-11 16:24N 18°01' W 063°03'0 0.1
2018-Jan-11 15:58N 18°00' W 063°03'1 1.2
2018-Jan-11 15:30N 18°00' W 063°03'1 1.8
2018-Jan-11 14:59N 18°00' W 063°04'1 2.1
2018-Jan-11 14:26N 17°60' W 063°05'1 2.6
2018-Jan-11 13:58N 17°59' W 063°06'1 1.5
2018-Jan-11 13:14N 17°57' W 063°06'0 1.6
2018-Jan-11 12:58N 17°57' W 063°06'2 3.3
2018-Jan-11 12:30N 17°56' W 063°06'2 4.4
2018-Jan-11 12:00N 17°54' W 063°05'4 4.9
2018-Jan-11 11:06N 17°49' W 063°04'1 4.4
2018-Jan-11 10:57N 17°49' W 063°04'2 4.4
2018-Jan-11 10:30N 17°47' W 063°04'2 4.2
2018-Jan-11 09:59N 17°45' W 063°03'2 4.0
2018-Jan-11 09:27N 17°43' W 063°04'2 4.9
2018-Jan-11 08:58N 17°41' W 063°03'5 4.5
2018-Jan-11 07:57N 17°36' W 063°02'4 4.4
2018-Jan-11 06:58N 17°32' W 063°02'2 4.1
2018-Jan-11 06:26N 17°30' W 063°01'1 0.8
2018-Jan-11 04:53N 17°29' W 063°00'0 0.0
2018-Jan-11 04:23N 17°29' W 063°00'0 0.0
2018-Jan-11 03:57N 17°29' W 063°00'0 0.5
2018-Jan-11 03:20N 17°29' W 063°00'0 0.1
2018-Jan-11 02:53N 17°29' W 063°00'0 0.0
2018-Jan-11 00:41N 17°29' W 063°00'0 1.5
2018-Jan-11 00:30N 17°29' W 063°00'0 0.5
2018-Jan-10 23:45N 17°29' W 063°01'0 0.3
2018-Jan-10 23:25N 17°29' W 063°01'6 3.4
2018-Jan-10 21:30N 17°35' W 063°02'2 3.9
2018-Jan-10 20:52N 17°38' W 063°03'2 4.0
2018-Jan-10 20:18N 17°40' W 063°03'1 4.1
2018-Jan-10 20:00N 17°41' W 063°03'2 4.0
2018-Jan-10 19:26N 17°43' W 063°03'2 4.0
2018-Jan-10 18:59N 17°45' W 063°03'2 4.1
2018-Jan-10 18:30N 17°47' W 063°04'3 4.0
2018-Jan-10 17:50N 17°50' W 063°04'1 4.2
2018-Jan-10 17:29N 17°51' W 063°04'2 4.3
2018-Jan-10 16:59N 17°53' W 063°05'2 4.3
2018-Jan-10 16:26N 17°56' W 063°05'2 4.4
2018-Jan-10 16:00N 17°58' W 063°05'2 4.3
2018-Jan-10 15:29N 17°60' W 063°06'1 2.9
2018-Jan-10 14:59N 18°00' W 063°05'1 2.8
2018-Jan-10 14:29N 18°01' W 063°03'0 0.4
2018-Jan-10 13:57N 18°01' W 063°03'0 0.5
2018-Jan-10 13:29N 18°01' W 063°03'0 0.0
2018-Jan-10 12:55N 18°01' W 063°03'0 0.0
2018-Jan-10 12:28N 18°01' W 063°03'0 0.0
2018-Jan-10 11:58N 18°01' W 063°03'0 0.0
2018-Jan-10 11:29N 18°01' W 063°03'0 0.0
2018-Jan-10 10:55N 18°01' W 063°03'0 0.0
2018-Jan-10 10:22N 18°01' W 063°03'0 0.0
2018-Jan-10 09:59N 18°01' W 063°03'0 0.0
2018-Jan-10 09:30N 18°01' W 063°03'0 0.0
2018-Jan-10 08:56N 18°01' W 063°03'0 0.0
2018-Jan-10 08:25N 18°01' W 063°03'0 0.0
2018-Jan-10 07:46N 18°01' W 063°03'0 0.1
2018-Jan-10 07:27N 18°01' W 063°03'0 0.0
2018-Jan-10 06:58N 18°01' W 063°03'0 0.0
2018-Jan-10 06:27N 18°01' W 063°03'0 0.0
2018-Jan-10 05:58N 18°01' W 063°03'0 0.0
2018-Jan-10 05:26N 18°01' W 063°03'0 0.0
2018-Jan-10 04:59N 18°01' W 063°03'0 0.1
2018-Jan-10 04:30N 18°01' W 063°03'0 0.0
2018-Jan-10 03:45N 18°01' W 063°03'0 0.0
2018-Jan-10 03:28N 18°01' W 063°03'0 0.0
2018-Jan-10 02:52N 18°01' W 063°03'0 0.0
2018-Jan-10 02:28N 18°01' W 063°03'0 0.0
2018-Jan-10 01:47N 18°01' W 063°03'0 0.9
2018-Jan-10 01:27N 18°01' W 063°03'0 0.7
2018-Jan-10 01:00N 18°01' W 063°03'  

Dump ship's entire track history